createdAt,value
2019-03-28T00:02:14.160Z,10.90
2019-03-28T00:04:42.648Z,10.15
2019-03-28T00:07:11.111Z,9.95
2019-03-28T00:09:39.529Z,9.45
2019-03-28T00:12:07.932Z,10.38
2019-03-28T00:14:36.358Z,9.30
2019-03-28T00:17:04.837Z,9.60
2019-03-28T00:19:33.248Z,9.30
2019-03-28T00:22:01.711Z,8.45
2019-03-28T00:24:31.754Z,9.35
2019-03-28T00:27:00.164Z,8.98
2019-03-28T00:29:28.725Z,8.73
2019-03-28T00:31:58.873Z,9.15
2019-03-28T00:34:27.202Z,9.70
2019-03-28T00:36:55.690Z,9.50
2019-03-28T00:39:24.157Z,10.40
2019-03-28T00:41:52.566Z,10.80
2019-03-28T00:44:21.135Z,11.10
2019-03-28T00:46:49.621Z,11.45
2019-03-28T00:49:18.160Z,11.00
2019-03-28T00:51:46.735Z,12.55
2019-03-28T00:54:15.138Z,12.15
2019-03-28T00:56:47.128Z,11.12
2019-03-28T00:59:13.742Z,12.50
2019-03-28T01:01:42.155Z,10.80
2019-03-28T01:04:10.674Z,10.78
2019-03-28T01:06:39.141Z,10.68
2019-03-28T01:09:09.391Z,10.68
2019-03-28T01:11:37.862Z,10.63
2019-03-28T01:14:06.274Z,9.65
2019-03-28T01:16:34.747Z,10.60
2019-03-28T01:19:03.281Z,10.05
2019-03-28T01:21:31.766Z,11.00
2019-03-28T01:24:00.238Z,12.47
2019-03-28T01:26:28.734Z,14.33
2019-03-28T01:28:57.213Z,14.15
2019-03-28T01:31:25.626Z,15.00
2019-03-28T01:33:54.097Z,15.18
2019-03-28T01:36:22.502Z,15.58
2019-03-28T01:38:50.910Z,13.65
2019-03-28T01:41:19.389Z,11.78
2019-03-28T01:43:47.814Z,12.40
2019-03-28T01:46:16.214Z,12.28
2019-03-28T01:48:44.617Z,13.70
2019-03-28T01:51:13.044Z,13.88
2019-03-28T01:53:41.511Z,14.93
2019-03-28T01:56:09.914Z,14.53
2019-03-28T01:58:38.321Z,15.90
2019-03-28T02:01:06.738Z,14.90
2019-03-28T02:03:35.210Z,14.73
2019-03-28T02:06:03.861Z,14.38
2019-03-28T02:08:32.266Z,15.18
2019-03-28T02:11:00.674Z,14.25
2019-03-28T02:13:29.151Z,15.45
2019-03-28T02:15:57.621Z,12.90
2019-03-28T02:18:26.040Z,13.45
2019-03-28T02:20:54.583Z,13.85
2019-03-28T02:23:23.070Z,13.50
2019-03-28T02:25:51.609Z,14.40
2019-03-28T02:28:20.006Z,12.82
2019-03-28T02:30:48.493Z,13.35
2019-03-28T02:33:16.901Z,13.50
2019-03-28T02:35:45.378Z,13.83
2019-03-28T02:38:13.861Z,13.03
2019-03-28T02:40:42.710Z,12.58
2019-03-28T02:43:11.352Z,11.73
2019-03-28T02:45:39.818Z,12.65
2019-03-28T02:48:08.216Z,12.03
2019-03-28T02:50:37.726Z,12.80
2019-03-28T02:53:06.414Z,12.45
2019-03-28T02:55:34.823Z,12.63
2019-03-28T02:58:03.302Z,11.90
2019-03-28T03:00:31.641Z,12.00
2019-03-28T03:03:00.037Z,12.05
2019-03-28T03:05:28.437Z,12.85
2019-03-28T03:07:56.852Z,13.15
2019-03-28T03:10:25.330Z,12.20
2019-03-28T03:12:54.040Z,12.70
2019-03-28T03:15:22.507Z,13.03
2019-03-28T03:17:53.037Z,13.72
2019-03-28T03:20:21.509Z,14.35
2019-03-28T03:22:49.928Z,15.53
2019-03-28T03:25:18.398Z,15.03
2019-03-28T03:27:57.828Z,14.85
2019-03-28T03:30:16.959Z,15.05
2019-03-28T03:32:45.343Z,15.85
2019-03-28T03:35:14.918Z,15.20
2019-03-28T03:37:43.415Z,17.75
2019-03-28T03:40:12.795Z,16.85
2019-03-28T03:42:41.199Z,18.30
2019-03-28T03:45:09.816Z,19.27
2019-03-28T03:47:38.283Z,19.67
2019-03-28T03:50:07.674Z,18.52
2019-03-28T03:52:36.030Z,19.37
2019-03-28T03:55:06.460Z,21.12
2019-03-28T03:57:34.870Z,17.80
2019-03-28T04:00:05.736Z,16.77
2019-03-28T04:02:34.187Z,16.42
2019-03-28T04:05:02.691Z,15.75
2019-03-28T04:07:31.171Z,16.73
2019-03-28T04:09:59.647Z,18.52
2019-03-28T04:12:28.333Z,17.45
2019-03-28T04:14:56.912Z,15.88
2019-03-28T04:17:25.403Z,15.03
2019-03-28T04:19:53.974Z,15.08
2019-03-28T04:22:22.456Z,15.18
2019-03-28T04:24:51.039Z,19.57
2019-03-28T04:27:19.524Z,19.32
2019-03-28T04:29:47.992Z,17.57
2019-03-28T04:32:16.471Z,21.40
2019-03-28T04:34:44.950Z,21.27
2019-03-28T04:37:13.429Z,19.07
2019-03-28T04:39:42.478Z,21.60
2019-03-28T04:42:11.205Z,17.45
2019-03-28T04:44:39.684Z,16.00
2019-03-28T04:47:08.164Z,13.72
2019-03-28T04:49:36.748Z,20.65
2019-03-28T04:52:05.326Z,11.22
2019-03-28T04:54:33.813Z,13.35
2019-03-28T04:57:02.284Z,15.40
2019-03-28T04:59:30.763Z,10.25
2019-03-28T05:02:03.234Z,11.18
2019-03-28T05:04:29.363Z,10.00
2019-03-28T05:06:57.821Z,12.55
2019-03-28T05:09:26.369Z,11.57
2019-03-28T05:11:54.904Z,10.55
2019-03-28T05:14:23.387Z,27.48
2019-03-28T05:16:51.857Z,15.70
2019-03-28T05:19:20.339Z,14.73
2019-03-28T05:21:48.818Z,17.77
2019-03-28T05:24:17.297Z,21.62
2019-03-28T05:26:45.773Z,19.32
2019-03-28T05:29:14.767Z,24.85
2019-03-28T05:31:43.224Z,15.08
2019-03-28T05:34:13.533Z,14.87
2019-03-28T05:36:42.147Z,13.18
2019-03-28T05:39:12.367Z,19.60
2019-03-28T05:41:40.847Z,19.50
2019-03-28T05:44:09.327Z,21.15
2019-03-28T05:46:38.361Z,17.23
2019-03-28T05:49:06.999Z,17.77
2019-03-28T05:51:35.479Z,15.53
2019-03-28T05:54:05.841Z,16.73
2019-03-28T05:56:33.970Z,17.67
2019-03-28T05:59:10.850Z,15.20
2019-03-28T06:01:32.595Z,12.50
2019-03-28T06:04:01.026Z,12.88
2019-03-28T06:06:29.430Z,12.50
2019-03-28T06:08:57.910Z,16.97
2019-03-28T06:11:26.426Z,14.68
2019-03-28T06:13:54.874Z,15.30
2019-03-28T06:16:23.365Z,27.60
2019-03-28T06:18:51.828Z,12.43
2019-03-28T06:21:20.242Z,10.53
2019-03-28T06:23:48.714Z,10.78
2019-03-28T06:26:17.133Z,10.08
2019-03-28T06:28:45.586Z,10.72
2019-03-28T06:31:15.728Z,10.23
2019-03-28T06:33:44.170Z,14.05
2019-03-28T06:36:12.570Z,18.25
2019-03-28T06:38:40.984Z,12.53
2019-03-28T06:41:09.382Z,14.43
2019-03-28T06:43:37.862Z,12.23
2019-03-28T06:46:06.273Z,10.65
2019-03-28T06:48:34.746Z,12.20
2019-03-28T06:51:03.219Z,10.18
2019-03-28T06:53:31.711Z,8.78
2019-03-28T06:56:00.123Z,14.83
2019-03-28T06:58:28.662Z,14.25
2019-03-28T07:00:57.142Z,36.42
2019-03-28T07:03:25.546Z,27.65
2019-03-28T07:05:53.962Z,28.90
2019-03-28T07:08:22.361Z,16.07
2019-03-28T07:10:50.775Z,60.08
2019-03-28T07:13:19.337Z,240.43
2019-03-28T07:15:47.744Z,91.05
2019-03-28T07:18:16.217Z,52.45
2019-03-28T07:20:44.698Z,32.08
2019-03-28T07:23:13.119Z,95.12
2019-03-28T07:25:41.519Z,40.92
2019-03-28T07:28:09.935Z,40.17
2019-03-28T07:30:40.226Z,64.72
2019-03-28T07:33:08.650Z,86.42
2019-03-28T07:35:37.118Z,35.52
2019-03-28T07:38:05.527Z,57.15
2019-03-28T07:40:34.072Z,54.50
2019-03-28T07:43:02.621Z,63.92
2019-03-28T07:45:34.185Z,29.57
2019-03-28T07:48:01.146Z,87.35
2019-03-28T07:50:29.627Z,61.83
2019-03-28T07:52:58.037Z,71.92
2019-03-28T07:55:26.543Z,77.40
2019-03-28T07:57:54.923Z,17.17
2019-03-28T08:00:23.402Z,11.12
2019-03-28T08:02:51.807Z,26.55
2019-03-28T08:05:20.221Z,30.27
2019-03-28T08:07:48.702Z,23.73
2019-03-28T08:10:17.111Z,13.30
2019-03-28T08:12:45.587Z,16.40
2019-03-28T08:15:14.122Z,12.70
2019-03-28T08:17:42.534Z,10.15
2019-03-28T08:20:11.478Z,11.90
2019-03-28T08:22:39.878Z,9.08
2019-03-28T08:25:11.651Z,10.78
2019-03-28T08:27:38.509Z,27.90
2019-03-28T08:30:18.160Z,11.40
2019-03-28T08:32:39.824Z,12.20
2019-03-28T08:35:07.998Z,10.05
2019-03-28T08:37:37.190Z,19.20
2019-03-28T08:40:08.822Z,8.25
2019-03-28T08:42:37.308Z,7.10
2019-03-28T08:45:07.184Z,11.05
2019-03-28T08:47:35.722Z,7.08
2019-03-28T08:50:06.165Z,7.53
2019-03-28T08:52:34.562Z,8.20
2019-03-28T08:55:03.438Z,7.05
2019-03-28T08:57:31.838Z,10.10
2019-03-28T09:00:00.443Z,9.08
2019-03-28T09:02:28.919Z,11.53
2019-03-28T09:04:57.566Z,7.95
2019-03-28T09:07:26.094Z,10.70
2019-03-28T09:09:54.546Z,6.15
2019-03-28T09:12:23.977Z,8.00
2019-03-28T09:14:52.419Z,9.85
2019-03-28T09:17:23.736Z,9.80
2019-03-28T09:19:50.946Z,9.73
2019-03-28T09:22:19.354Z,15.45
2019-03-28T09:24:47.831Z,10.80
2019-03-28T09:27:16.278Z,10.38
2019-03-28T09:29:44.651Z,7.42
2019-03-28T09:32:13.122Z,7.08
2019-03-28T09:34:41.525Z,7.35
2019-03-28T09:37:09.932Z,8.75
2019-03-28T09:39:38.436Z,8.00
2019-03-28T09:42:06.838Z,8.30
2019-03-28T09:44:35.345Z,7.75
2019-03-28T09:47:03.748Z,7.78
2019-03-28T09:49:32.157Z,7.20
2019-03-28T09:52:00.566Z,7.40
2019-03-28T09:54:29.030Z,7.55
2019-03-28T09:56:57.434Z,6.75
2019-03-28T09:59:25.830Z,7.92
2019-03-28T10:01:54.318Z,8.78
2019-03-28T10:04:22.717Z,15.75
2019-03-28T10:06:51.103Z,9.13
2019-03-28T10:09:19.586Z,17.50
2019-03-28T10:11:48.000Z,8.53
2019-03-28T10:14:16.401Z,7.72
2019-03-28T10:16:45.039Z,10.43
2019-03-28T10:19:13.521Z,12.90
2019-03-28T10:21:41.986Z,5.08
2019-03-28T10:24:10.948Z,5.37
2019-03-28T10:26:39.990Z,5.40
2019-03-28T10:29:08.395Z,5.78
2019-03-28T10:31:36.951Z,4.30
2019-03-28T10:34:05.428Z,4.22
2019-03-28T10:36:34.070Z,3.37
2019-03-28T10:39:02.714Z,3.80
2019-03-28T10:41:31.229Z,4.03
2019-03-28T10:43:59.621Z,5.58
2019-03-28T10:46:28.030Z,4.67
2019-03-28T10:48:56.559Z,4.20
2019-03-28T10:51:25.029Z,5.45
2019-03-28T10:53:53.455Z,4.70
2019-03-28T10:56:23.416Z,4.42
2019-03-28T10:58:51.970Z,4.50
2019-03-28T11:01:36.070Z,4.85
2019-03-28T11:03:50.486Z,3.67
2019-03-28T11:06:18.892Z,5.00
2019-03-28T11:08:47.362Z,6.08
2019-03-28T11:11:15.844Z,4.95
2019-03-28T11:13:44.246Z,5.10
2019-03-28T11:16:14.977Z,4.92
2019-03-28T11:18:42.766Z,4.08
2019-03-28T11:21:11.174Z,6.95
2019-03-28T11:23:39.650Z,4.30
2019-03-28T11:26:08.064Z,5.00
2019-03-28T11:28:36.570Z,6.55
2019-03-28T11:31:05.046Z,4.87
2019-03-28T11:33:33.522Z,6.17
2019-03-28T11:36:01.937Z,4.37
2019-03-28T11:38:30.338Z,3.45
2019-03-28T11:40:58.776Z,5.87
2019-03-28T11:43:27.318Z,3.70
2019-03-28T11:45:55.793Z,3.60
2019-03-28T11:48:24.446Z,4.10
2019-03-28T11:50:52.977Z,4.30
2019-03-28T11:53:21.444Z,2.08
2019-03-28T11:55:49.915Z,2.60
2019-03-28T11:58:18.386Z,1.80
2019-03-28T12:00:47.847Z,1.20
2019-03-28T12:03:16.292Z,1.10
2019-03-28T12:05:44.667Z,2.47
2019-03-28T12:08:13.130Z,1.10
2019-03-28T12:10:41.691Z,1.30
2019-03-28T12:13:10.175Z,10.98
2019-03-28T12:15:38.575Z,1.50
2019-03-28T12:18:07.047Z,0.98
2019-03-28T12:20:35.453Z,1.10
2019-03-28T12:23:03.999Z,1.87
2019-03-28T12:25:32.430Z,1.22
2019-03-28T12:28:00.840Z,2.02
2019-03-28T12:30:29.322Z,1.70
2019-03-28T12:32:57.803Z,1.60
2019-03-28T12:35:26.213Z,1.00
2019-03-28T12:37:54.604Z,1.20
2019-03-28T12:40:23.023Z,1.35
2019-03-28T12:42:51.498Z,1.35
2019-03-28T12:45:19.910Z,1.67
2019-03-28T12:47:48.303Z,1.70
2019-03-28T12:50:16.780Z,1.50
2019-03-28T12:52:45.235Z,2.10
2019-03-28T12:55:13.646Z,1.60
2019-03-28T12:57:42.132Z,1.00
2019-03-28T13:00:11.570Z,1.27
2019-03-28T13:02:40.058Z,1.87
2019-03-28T13:05:08.802Z,4.50
2019-03-28T13:07:37.220Z,2.25
2019-03-28T13:10:10.543Z,5.15
2019-03-28T13:12:39.078Z,1.60
2019-03-28T13:15:07.562Z,2.83
2019-03-28T13:17:35.964Z,1.17
2019-03-28T13:20:07.015Z,1.20
2019-03-28T13:22:35.485Z,2.98
2019-03-28T13:25:05.936Z,2.70
2019-03-28T13:27:34.853Z,2.60
2019-03-28T13:30:05.289Z,1.80
2019-03-28T13:32:41.588Z,1.62
2019-03-28T13:35:06.312Z,1.40
2019-03-28T13:37:34.729Z,1.07
2019-03-28T13:40:04.693Z,1.20
2019-03-28T13:42:33.106Z,1.37
2019-03-28T13:45:01.522Z,1.42
2019-03-28T13:47:30.001Z,1.05
2019-03-28T13:49:58.412Z,1.50
2019-03-28T13:52:26.896Z,1.20
2019-03-28T13:54:55.375Z,1.50
2019-03-28T13:57:25.167Z,1.02
2019-03-28T13:59:53.660Z,1.40
2019-03-28T14:02:22.147Z,1.40
2019-03-28T14:04:50.565Z,1.80
2019-03-28T14:07:19.000Z,1.40
2019-03-28T14:09:47.468Z,3.17
2019-03-28T14:12:15.952Z,4.08
2019-03-28T14:14:44.372Z,2.22
2019-03-28T14:17:12.785Z,2.62
2019-03-28T14:19:41.277Z,4.35
2019-03-28T14:22:09.758Z,3.95
2019-03-28T14:24:38.177Z,1.77
2019-03-28T14:27:06.669Z,1.65
2019-03-28T14:29:35.173Z,1.30
2019-03-28T14:32:03.671Z,1.47
2019-03-28T14:34:32.172Z,1.50
2019-03-28T14:37:00.592Z,2.35
2019-03-28T14:39:29.084Z,2.00
2019-03-28T14:41:57.583Z,1.98
2019-03-28T14:44:26.077Z,1.40
2019-03-28T14:46:54.493Z,2.05
2019-03-28T14:49:22.954Z,1.65
2019-03-28T14:51:51.504Z,1.80
2019-03-28T14:54:19.913Z,1.50
2019-03-28T14:56:48.325Z,2.08
2019-03-28T14:59:16.743Z,1.80
2019-03-28T15:01:45.324Z,3.00
2019-03-28T15:04:13.887Z,1.95
2019-03-28T15:06:42.297Z,2.50
2019-03-28T15:09:10.804Z,1.67
2019-03-28T15:11:39.300Z,6.83
2019-03-28T15:14:07.791Z,9.93
2019-03-28T15:16:37.471Z,2.00
2019-03-28T15:19:06.388Z,1.67
2019-03-28T15:21:34.871Z,2.27
2019-03-28T15:24:03.281Z,2.67
2019-03-28T15:26:31.866Z,3.60
2019-03-28T15:29:00.335Z,2.00
2019-03-28T15:31:28.909Z,1.77
2019-03-28T15:33:57.461Z,2.37
2019-03-28T15:36:25.986Z,3.05
2019-03-28T15:38:55.321Z,2.77
2019-03-28T15:41:23.812Z,3.42
2019-03-28T15:43:52.231Z,2.58
2019-03-28T15:46:20.667Z,11.03
2019-03-28T15:48:49.248Z,14.05
2019-03-28T15:51:17.664Z,5.10
2019-03-28T15:53:46.217Z,3.85
2019-03-28T15:56:14.700Z,3.60
2019-03-28T15:58:43.116Z,3.67
2019-03-28T16:01:11.744Z,2.67
2019-03-28T16:03:52.347Z,7.35
2019-03-28T16:06:12.301Z,5.80
2019-03-28T16:08:40.728Z,2.90
2019-03-28T16:11:09.154Z,6.12
2019-03-28T16:13:37.799Z,11.45
2019-03-28T16:16:06.449Z,40.67
2019-03-28T16:18:34.860Z,7.08
2019-03-28T16:21:03.272Z,5.72
2019-03-28T16:23:31.688Z,2.22
2019-03-28T16:26:00.175Z,10.50
2019-03-28T16:28:28.678Z,95.10
2019-03-28T16:30:57.106Z,12.40
2019-03-28T16:33:25.592Z,8.25
2019-03-28T16:35:54.003Z,3.72
2019-03-28T16:38:22.422Z,5.70
2019-03-28T16:40:50.824Z,7.47
2019-03-28T16:43:19.322Z,6.92
2019-03-28T16:45:47.792Z,4.87
2019-03-28T16:48:16.328Z,17.02
2019-03-28T16:50:44.815Z,12.50
2019-03-28T16:53:13.226Z,18.92
2019-03-28T16:55:41.631Z,13.88
2019-03-28T16:58:10.119Z,6.95
2019-03-28T17:00:38.614Z,12.18
2019-03-28T17:03:07.702Z,13.08
2019-03-28T17:05:36.413Z,29.00
2019-03-28T17:08:04.899Z,23.07
2019-03-28T17:10:41.657Z,21.27
2019-03-28T17:13:10.072Z,20.60
2019-03-28T17:15:38.572Z,29.77
2019-03-28T17:18:07.055Z,16.00
2019-03-28T17:20:35.547Z,42.98
2019-03-28T17:23:03.952Z,27.58
2019-03-28T17:25:32.372Z,5.37
2019-03-28T17:28:00.832Z,18.60
2019-03-28T17:30:29.269Z,15.98
2019-03-28T17:32:57.692Z,39.88
2019-03-28T17:35:26.181Z,21.23
2019-03-28T17:37:54.676Z,11.05
2019-03-28T17:40:23.274Z,22.30
2019-03-28T17:42:51.806Z,11.43
2019-03-28T17:45:20.285Z,24.43
2019-03-28T17:47:48.704Z,17.02
2019-03-28T17:50:17.620Z,43.02
2019-03-28T17:52:46.374Z,14.95
2019-03-28T17:55:19.500Z,19.10
2019-03-28T18:00:14.225Z,28.12
2019-03-28T18:02:42.815Z,33.23
2019-03-28T18:05:15.267Z,19.70
2019-03-28T18:07:41.617Z,35.15
2019-03-28T18:10:09.994Z,13.00
2019-03-28T18:12:39.628Z,32.88
2019-03-28T18:15:08.193Z,23.98
2019-03-28T18:17:36.600Z,25.00
2019-03-28T18:20:08.008Z,22.70
2019-03-28T18:22:36.582Z,18.27
2019-03-28T18:25:08.138Z,17.95
2019-03-28T18:27:36.584Z,22.58
2019-03-28T18:30:06.648Z,16.70
2019-03-28T18:32:35.137Z,37.75
2019-03-28T18:35:07.699Z,47.75
2019-03-28T18:37:35.785Z,19.67
2019-03-28T18:40:06.140Z,43.33
2019-03-28T18:42:34.627Z,38.95
2019-03-28T18:45:03.720Z,36.63
2019-03-28T18:47:32.201Z,31.65
2019-03-28T18:50:03.441Z,3.75
2019-03-28T18:52:30.788Z,22.30
2019-03-28T18:54:59.212Z,23.55
2019-03-28T18:57:27.696Z,16.67
2019-03-28T18:59:56.122Z,19.60
2019-03-28T19:02:24.613Z,8.03
2019-03-28T19:04:53.004Z,19.27
2019-03-28T19:07:21.458Z,16.48
2019-03-28T19:09:49.884Z,19.10
2019-03-28T19:12:18.300Z,7.10
2019-03-28T19:14:46.717Z,6.83
2019-03-28T19:17:15.219Z,11.60
2019-03-28T19:19:43.810Z,6.40
2019-03-28T19:22:12.407Z,4.15
2019-03-28T19:24:40.821Z,9.93
2019-03-28T19:27:09.240Z,12.37
2019-03-28T19:29:37.724Z,8.55
2019-03-28T19:32:06.137Z,9.33
2019-03-28T19:34:34.628Z,8.85
2019-03-28T19:37:03.105Z,9.08
2019-03-28T19:39:32.960Z,6.25
2019-03-28T19:42:04.294Z,7.70
2019-03-28T19:44:31.513Z,9.43
2019-03-28T19:47:00.001Z,10.90
2019-03-28T19:49:28.544Z,7.72
2019-03-28T19:51:56.984Z,8.73
2019-03-28T19:54:25.368Z,4.72
2019-03-28T19:56:57.169Z,5.72
2019-03-28T19:59:23.989Z,4.60
2019-03-28T20:01:52.536Z,5.47
2019-03-28T20:04:20.966Z,5.37
2019-03-28T20:06:50.218Z,2.87
2019-03-28T20:09:18.761Z,3.85
2019-03-28T20:11:47.237Z,2.72
2019-03-28T20:14:15.869Z,2.15
2019-03-28T20:16:44.465Z,2.42
2019-03-28T20:19:12.961Z,2.40
2019-03-28T20:21:41.361Z,2.58
2019-03-28T20:24:09.767Z,2.75
2019-03-28T20:26:38.212Z,5.83
2019-03-28T20:29:06.726Z,7.28
2019-03-28T20:31:35.110Z,7.35
2019-03-28T20:34:03.813Z,3.65
2019-03-28T20:36:38.495Z,3.60
2019-03-28T20:39:04.323Z,3.60
2019-03-28T20:41:32.513Z,3.08
2019-03-28T20:44:01.048Z,3.08
2019-03-28T20:46:29.546Z,2.70
2019-03-28T20:48:58.008Z,2.45
2019-03-28T20:51:26.630Z,2.52
2019-03-28T20:53:55.400Z,1.80
2019-03-28T20:56:23.879Z,2.10
2019-03-28T20:58:52.280Z,2.20
2019-03-28T21:01:20.764Z,1.92
2019-03-28T21:03:49.769Z,1.95
2019-03-28T21:06:19.573Z,3.05
2019-03-28T21:08:48.165Z,2.70
2019-03-28T21:11:16.712Z,1.72
2019-03-28T21:13:45.165Z,1.90
2019-03-28T21:16:13.664Z,1.92
2019-03-28T21:18:42.144Z,2.47
2019-03-28T21:21:10.624Z,2.33
2019-03-28T21:23:39.076Z,2.75
2019-03-28T21:26:07.480Z,2.77
2019-03-28T21:28:46.401Z,2.87
2019-03-28T21:31:06.022Z,2.37
2019-03-28T21:33:34.503Z,2.40
2019-03-28T21:36:02.980Z,4.00
2019-03-28T21:38:31.469Z,2.72
2019-03-28T21:40:59.956Z,3.00
2019-03-28T21:43:28.433Z,2.70
2019-03-28T21:45:56.839Z,2.85
2019-03-28T21:48:25.295Z,3.30
2019-03-28T21:50:53.863Z,2.90
2019-03-28T21:53:22.453Z,3.02
2019-03-28T21:55:55.557Z,2.33
2019-03-28T21:58:20.992Z,2.67
2019-03-28T22:00:49.476Z,2.50
2019-03-28T22:03:17.896Z,2.90
2019-03-28T22:05:46.377Z,2.77
2019-03-28T22:08:14.773Z,2.70
2019-03-28T22:10:43.478Z,2.72
2019-03-28T22:13:12.432Z,2.80
2019-03-28T22:15:41.009Z,2.42
2019-03-28T22:18:09.448Z,2.55
2019-03-28T22:20:38.092Z,2.50
2019-03-28T22:23:06.501Z,2.67
2019-03-28T22:25:34.896Z,2.62
2019-03-28T22:28:03.299Z,2.72
2019-03-28T22:30:31.714Z,3.40
2019-03-28T22:33:00.120Z,2.72
2019-03-28T22:35:28.601Z,2.83
2019-03-28T22:37:57.025Z,4.95
2019-03-28T22:40:25.495Z,2.77
2019-03-28T22:42:53.915Z,3.00
2019-03-28T22:45:22.393Z,3.37
2019-03-28T22:47:50.876Z,3.30
2019-03-28T22:50:19.301Z,2.60
2019-03-28T22:52:49.649Z,2.22
2019-03-28T22:55:18.012Z,2.27
2019-03-28T22:57:46.482Z,2.50
2019-03-28T23:00:14.961Z,2.05
2019-03-28T23:02:43.436Z,2.20
2019-03-28T23:05:11.929Z,2.12
2019-03-28T23:07:42.467Z,2.25
2019-03-28T23:10:11.567Z,1.90
2019-03-28T23:12:40.044Z,2.20
2019-03-28T23:15:08.884Z,1.77
2019-03-28T23:17:55.660Z,2.00
2019-03-28T23:20:24.157Z,2.02
2019-03-28T23:22:52.550Z,1.72
2019-03-28T23:25:21.370Z,1.72
2019-03-28T23:27:49.767Z,1.80
2019-03-28T23:30:18.166Z,1.95
2019-03-28T23:32:46.739Z,1.98
2019-03-28T23:35:17.378Z,1.70
2019-03-28T23:37:45.793Z,2.20
2019-03-28T23:40:14.322Z,2.00
2019-03-28T23:42:43.862Z,1.98
2019-03-28T23:45:12.745Z,1.95
2019-03-28T23:47:41.926Z,2.50
2019-03-28T23:50:10.317Z,2.05
2019-03-28T23:52:38.720Z,1.70
2019-03-28T23:55:07.785Z,1.82
2019-03-28T23:57:36.188Z,2.10
